Aranspass, Texas
Current Conditions -  °F | °C
As of 2:35 AM on Sunday 26 Oct 2014 (Local Time) from KTFP Reporting Station
Clear Clear  
Wind Chill: 69°   Ceiling: Unl
Heat Index: 69°   Visibility: 10mi
Dew Point: 62°   Wind: 0mph
Humidity: 80%   Direction: NA
Pressure: 30.06"   Gusts: NA
Location:  27.9399°N, 97.1805°W
Report Text: KTFP 260735Z AUTO 00000KT 10SM CLR 20/17 A3006 RMK AO2 T02040169
Loading
Personal Weather Stations






























Interactive Weather Map
Tropical Storm Tracking
New forecast layout! Learn more

10-Day Weather Forecast

Advertisements
Track Severe Weather on mobile